Eagle River, WI (54521)

8:58 PM CST on January 20, 2017 (GMT -0600)
The Ridge | | Change Station

Elev 1677 ft 45.94 °N, 89.16 °W | Updated 13 seconds ago

Drizzle
Drizzle
34.0 °F
Feels Like 34 °F
N
0.0
Wind Variable Wind from SSE
Gusts 0.0 mph

Today
High -- | Low -- °F
--% Chance of Precip.
Yesterday
High -- | Low -- °F
Precip. -- in
Pressure 29.61 in
Visibility 2.5 miles
Clouds Overcast 300 ft
Windchill 34 °F
Dew Point 32 °F
Humidity 94%
Rainfall 0.18 in
Snow Depth Not available.
7:30 AM 4:45 PM
Last Quarter, 39% visible
METAR KEGV 210235Z AUTO 14004KT 2 1/2SM DZ OVC003 01/01 A2961 RMK AO2 T00070007
Pressure 29.61 in
Visibility 2.5 miles
Clouds Overcast 300 ft
Windchill 34 °F
Dew Point 32 °F
Humidity 94%
Rainfall 0.18 in
Snow Depth Not available.
7:30 AM 4:45 PM
Last Quarter, 39% visible
METAR KEGV 210235Z AUTO 14004KT 2 1/2SM DZ OVC003 01/01 A2961 RMK AO2 T00070007

Get Your Daily Forecast Email!

Thanks for signing up!

Be on the lookout for a verification email in your inbox.

You'll start receiving the daily forecast at 8 AM.

×

10-Day Weather Forecast

Almanac

Astronomy

Jan. 20, 2017 Rise Set
Actual Time
Civil Twilight
Nautical Twilight
Astronomical Twilight
Moon
Length of Visible Light
Length of Day
Tomorrow will be .
, % of the Moon is Illuminated

Today's Extremes

State Highs State Lows

Community

WunderPhotos

Upload Photos

1,962,540 photos uploaded!

WunderBlog® & News

Nearby

Air Quality

  Air Quality AQ Index Pollutant
Not available.

Snow Depth

Station Depth Elevation

Earthquake Activity

City Distance Mag. Time & Date
Minimum magnitude displayed is 2.5.

Coastal Water Temperatures

Place Temperature

Stations

Nearby Weather Stations

Station Location Temp. Windchill Dew Point Humidity Wind Precip. Elev Updated Type
                   

Watches & Warnings

There are currently no watches in effect.